Time;durP1;ratioP1;P1;durP2;ratioP2;P2;SDS_P1;SDS_P2;PMS_P1;PMS_P2;Temp;Humidity;BMP_temperature;BMP_pressure;BME280_temperature;BME280_humidity;BME280_pressure;Samples;Min_cycle;Max_cycle;Signal;HPM_P1;HPM_P2
2021/07/23 00:00:34;;;;;;;10.40;9.40;;;27.40;48.30;;;;;;4952210;29;20196;-46
2021/07/23 00:03:00;;;;;;;10.57;9.30;;;27.40;48.30;;;;;;4953457;29;20196;-50
2021/07/23 00:05:25;;;;;;;10.63;9.60;;;27.30;48.60;;;;;;4952880;29;20231;-50
2021/07/23 00:07:51;;;;;;;10.67;9.77;;;27.30;48.60;;;;;;4953079;28;20675;-46
2021/07/23 00:10:16;;;;;;;10.23;9.40;;;27.20;48.60;;;;;;4952255;29;20605;-47
2021/07/23 00:12:42;;;;;;;11.37;10.30;;;27.10;48.80;;;;;;4953248;29;20204;-46
2021/07/23 00:15:09;;;;;;;11.00;10.00;;;27.10;48.90;;;;;;4950492;29;20251;-51
2021/07/23 00:17:34;;;;;;;11.63;10.50;;;27.20;48.50;;;;;;4952113;29;20767;-46
2021/07/23 00:20:01;;;;;;;12.43;11.23;;;27.10;48.80;;;;;;4950875;29;20476;-46
2021/07/23 00:22:27;;;;;;;11.13;10.03;;;27.10;49.00;;;;;;4952349;29;20990;-49
2021/07/23 00:24:52;;;;;;;11.23;10.13;;;27.10;49.10;;;;;;4949527;29;20258;-48
2021/07/23 00:27:18;;;;;;;11.43;10.40;;;27.10;49.00;;;;;;4952257;29;20235;-47
2021/07/23 00:29:44;;;;;;;11.30;10.03;;;27.10;48.60;;;;;;4949146;29;20188;-45
2021/07/23 00:32:10;;;;;;;11.00;10.00;;;27.10;48.50;;;;;;4951175;29;20291;-50
2021/07/23 00:34:35;;;;;;;10.07;9.07;;;27.10;48.60;;;;;;4950798;29;20613;-49
2021/07/23 00:37:01;;;;;;;12.83;10.47;;;27.10;48.50;;;;;;4951575;28;20279;-50
2021/07/23 00:39:27;;;;;;;10.50;9.60;;;27.10;48.60;;;;;;4946885;29;20676;-45
2021/07/23 00:41:52;;;;;;;10.87;9.77;;;27.10;48.70;;;;;;4949183;29;20203;-45
2021/07/23 00:44:18;;;;;;;12.17;11.07;;;27.00;48.90;;;;;;4951196;29;20204;-46
2021/07/23 00:46:44;;;;;;;11.10;9.90;;;27.10;48.80;;;;;;4951923;28;20200;-45
2021/07/23 00:49:11;;;;;;;11.70;10.70;;;27.00;48.70;;;;;;4951833;29;20193;-46
2021/07/23 00:51:36;;;;;;;10.80;9.53;;;26.90;48.90;;;;;;4942168;29;20445;-51
2021/07/23 00:54:03;;;;;;;11.80;10.40;;;26.90;49.00;;;;;;4947828;29;20865;-47
2021/07/23 00:56:28;;;;;;;11.20;9.67;;;26.90;49.00;;;;;;4951901;28;20196;-45
2021/07/23 00:58:55;;;;;;;10.10;9.30;;;26.90;49.10;;;;;;4948883;29;20441;-47
2021/07/23 01:01:22;;;;;;;14.03;11.27;;;26.90;49.00;;;;;;4952546;29;20722;-47
2021/07/23 01:03:48;;;;;;;10.00;9.20;;;26.80;48.80;;;;;;4951740;29;20439;-46
2021/07/23 01:06:14;;;;;;;10.80;9.80;;;26.80;49.30;;;;;;4947443;28;20495;-47
2021/07/23 01:08:40;;;;;;;9.63;8.70;;;26.80;49.40;;;;;;4939520;29;20478;-47
2021/07/23 01:11:05;;;;;;;12.00;10.17;;;26.80;49.30;;;;;;4952062;28;20211;-46
2021/07/23 01:13:31;;;;;;;11.00;10.00;;;26.80;49.30;;;;;;4949905;28;20204;-46
2021/07/23 01:15:57;;;;;;;12.13;10.50;;;26.70;49.40;;;;;;4951160;28;20191;-46
2021/07/23 01:18:22;;;;;;;11.20;10.00;;;26.80;49.30;;;;;;4946858;29;20758;-46
2021/07/23 01:20:49;;;;;;;11.17;10.07;;;26.80;49.20;;;;;;4949765;28;20212;-45
2021/07/23 01:23:32;;;;;;;11.57;10.47;;;26.80;49.10;;;;;;4943032;29;20283;-47
2021/07/23 01:26:02;;;;;;;11.47;10.33;;;26.80;49.00;;;;;;4948864;28;20447;-51
2021/07/23 01:28:30;;;;;;;11.17;10.13;;;26.70;49.30;;;;;;4940733;29;20440;-46
2021/07/23 01:30:58;;;;;;;12.30;11.10;;;26.70;49.40;;;;;;4951996;29;21014;-45
2021/07/23 01:33:24;;;;;;;10.33;9.33;;;26.70;49.10;;;;;;4952587;28;20887;-45
2021/07/23 01:35:49;;;;;;;11.20;10.20;;;26.70;49.40;;;;;;4949158;29;20526;-46
2021/07/23 01:38:16;;;;;;;10.87;9.80;;;26.70;49.50;;;;;;4948568;29;20224;-48
2021/07/23 01:40:43;;;;;;;11.17;10.07;;;26.70;49.40;;;;;;4943614;28;20203;-46
2021/07/23 01:43:10;;;;;;;10.80;9.60;;;26.60;49.40;;;;;;4952157;29;20959;-46
2021/07/23 01:45:36;;;;;;;11.40;10.30;;;26.70;49.40;;;;;;4947002;29;20792;-47
2021/07/23 01:48:01;;;;;;;10.63;9.63;;;26.60;49.40;;;;;;4932529;29;20515;-46
2021/07/23 01:50:27;;;;;;;11.47;10.27;;;26.60;49.60;;;;;;4942652;28;20613;-46
2021/07/23 01:52:52;;;;;;;10.90;9.90;;;26.60;49.50;;;;;;4952518;29;20204;-50
2021/07/23 01:55:18;;;;;;;11.90;10.70;;;26.60;49.60;;;;;;4952075;29;20258;-50
2021/07/23 01:57:43;;;;;;;11.43;10.23;;;26.50;49.60;;;;;;4934559;29;20366;-46
2021/07/23 02:00:10;;;;;;;9.83;8.93;;;26.50;49.70;;;;;;4952145;29;20279;-45
2021/07/23 02:02:35;;;;;;;10.87;9.83;;;26.50;49.70;;;;;;4952146;28;20203;-46
2021/07/23 02:05:02;;;;;;;10.83;9.67;;;26.60;49.50;;;;;;4947348;29;20927;-48
2021/07/23 02:07:28;;;;;;;11.40;10.30;;;26.50;49.60;;;;;;4949648;28;20196;-48
2021/07/23 02:09:53;;;;;;;11.17;10.03;;;26.40;49.80;;;;;;4956323;29;20443;-46
2021/07/23 02:12:19;;;;;;;10.90;9.80;;;26.40;50.20;;;;;;4947974;29;20231;-52
2021/07/23 02:14:45;;;;;;;11.00;9.90;;;26.50;49.50;;;;;;4952035;28;20196;-51
2021/07/23 02:17:13;;;;;;;12.60;10.27;;;26.40;49.70;;;;;;4947597;29;20274;-47
2021/07/23 02:19:38;;;;;;;10.77;9.60;;;26.50;49.70;;;;;;4953812;29;20707;-46
2021/07/23 02:22:05;;;;;;;11.17;9.47;;;26.40;49.80;;;;;;4955232;29;20436;-49
2021/07/23 02:24:31;;;;;;;12.10;10.83;;;26.40;49.80;;;;;;4954423;29;20195;-47
2021/07/23 02:26:57;;;;;;;11.07;9.97;;;26.40;50.00;;;;;;4951960;29;20562;-50
2021/07/23 02:29:23;;;;;;;10.40;9.40;;;26.30;50.00;;;;;;4949808;29;20227;-51
2021/07/23 02:31:48;;;;;;;9.43;8.53;;;26.40;50.10;;;;;;4954992;29;20192;-46
2021/07/23 02:34:14;;;;;;;11.63;10.50;;;26.40;50.10;;;;;;4948369;29;20794;-46
2021/07/23 02:36:40;;;;;;;11.50;9.80;;;26.40;50.00;;;;;;4953318;29;20206;-45
2021/07/23 02:39:05;;;;;;;11.50;10.30;;;26.30;49.90;;;;;;4953845;29;20448;-49
2021/07/23 02:41:31;;;;;;;10.40;9.43;;;26.30;49.90;;;;;;4953807;29;20542;-50
2021/07/23 02:43:57;;;;;;;10.23;9.33;;;26.30;50.00;;;;;;4953333;29;20194;-48
2021/07/23 02:46:22;;;;;;;11.50;9.30;;;26.30;49.90;;;;;;4952128;29;20561;-48
2021/07/23 02:48:48;;;;;;;12.43;11.27;;;26.30;49.90;;;;;;4944634;29;20191;-50
2021/07/23 02:51:14;;;;;;;13.60;11.37;;;26.30;49.90;;;;;;4951216;29;20212;-51
2021/07/23 02:53:40;;;;;;;11.80;10.60;;;26.30;49.80;;;;;;4954461;28;20251;-48
2021/07/23 02:56:07;;;;;;;11.57;10.37;;;26.30;49.80;;;;;;4954095;29;20560;-46
2021/07/23 02:58:36;;;;;;;10.53;9.43;;;26.20;49.70;;;;;;4951043;29;20292;-52
2021/07/23 03:01:04;;;;;;;12.97;10.60;;;26.20;50.10;;;;;;4952484;29;20443;-51
2021/07/23 03:03:29;;;;;;;9.80;8.87;;;26.10;50.10;;;;;;4952420;28;20432;-50
2021/07/23 03:05:56;;;;;;;11.37;10.17;;;26.10;50.00;;;;;;4952649;28;20442;-51
2021/07/23 03:08:22;;;;;;;11.53;9.63;;;26.20;49.80;;;;;;4944909;29;20203;-45
2021/07/23 03:10:47;;;;;;;10.77;9.77;;;26.10;50.20;;;;;;4952724;29;20509;-46
2021/07/23 03:13:13;;;;;;;11.47;10.10;;;26.10;49.90;;;;;;4947571;29;20200;-51
2021/07/23 03:15:38;;;;;;;11.53;10.43;;;26.10;50.00;;;;;;4951803;28;20656;-50
2021/07/23 03:18:04;;;;;;;12.80;10.50;;;26.10;49.80;;;;;;4954086;29;20306;-47
2021/07/23 03:20:30;;;;;;;11.53;9.90;;;26.10;49.50;;;;;;4946731;28;20661;-45
2021/07/23 03:22:55;;;;;;;11.10;10.00;;;26.20;49.70;;;;;;4953042;29;20200;-47
2021/07/23 03:25:21;;;;;;;14.07;10.50;;;26.10;49.70;;;;;;4954376;29;20207;-51
2021/07/23 03:27:46;;;;;;;12.40;10.47;;;26.20;49.80;;;;;;4950854;29;20719;-52
2021/07/23 03:30:13;;;;;;;14.03;10.23;;;26.10;49.80;;;;;;4954558;29;20271;-46
2021/07/23 03:32:38;;;;;;;11.40;10.27;;;26.10;50.00;;;;;;4953257;29;20192;-46
2021/07/23 03:35:05;;;;;;;13.33;10.60;;;26.10;50.00;;;;;;4946983;28;20432;-48
2021/07/23 03:37:30;;;;;;;10.90;9.80;;;26.10;50.10;;;;;;4948771;28;20223;-45
2021/07/23 03:39:56;;;;;;;10.60;9.50;;;26.10;50.20;;;;;;4947110;29;20875;-46
2021/07/23 03:42:21;;;;;;;12.10;10.20;;;26.10;50.30;;;;;;4947249;28;20227;-47
2021/07/23 03:44:47;;;;;;;11.90;10.70;;;26.10;50.10;;;;;;4943830;29;20310;-48
2021/07/23 03:47:15;;;;;;;13.30;11.00;;;26.10;50.00;;;;;;4949401;28;20200;-50
2021/07/23 03:49:41;;;;;;;10.80;9.80;;;26.00;50.00;;;;;;4945338;28;20544;-48
2021/07/23 03:52:07;;;;;;;13.93;11.70;;;26.00;50.20;;;;;;4951595;29;20443;-46
2021/07/23 03:54:33;;;;;;;13.90;10.70;;;25.90;50.30;;;;;;4940464;29;20204;-46
2021/07/23 03:56:58;;;;;;;14.27;10.87;;;25.90;50.30;;;;;;4949602;28;20315;-48
2021/07/23 03:59:24;;;;;;;13.77;10.67;;;25.90;50.50;;;;;;4949461;29;20567;-46
2021/07/23 04:01:49;;;;;;;10.83;9.80;;;25.90;50.50;;;;;;4943425;28;20239;-45
2021/07/23 04:04:15;;;;;;;11.40;10.30;;;25.90;50.50;;;;;;4963688;28;20203;-49
2021/07/23 04:06:41;;;;;;;10.83;9.83;;;25.90;50.60;;;;;;4944478;28;20618;-46
2021/07/23 04:09:06;;;;;;;11.67;10.60;;;25.90;50.70;;;;;;4949272;28;20197;-49
2021/07/23 04:11:51;;;;;;;12.93;10.10;;;25.90;50.70;;;;;;4952590;29;20280;-47
2021/07/23 04:14:18;;;;;;;11.33;10.23;;;25.90;50.60;;;;;;4953247;28;21803;-46
2021/07/23 04:16:44;;;;;;;12.30;10.90;;;25.90;50.60;;;;;;4952850;29;20432;-45
2021/07/23 04:19:09;;;;;;;11.33;10.30;;;25.90;50.70;;;;;;4952981;28;20503;-47
2021/07/23 04:21:35;;;;;;;11.90;10.70;;;25.80;50.60;;;;;;4952411;29;20253;-52
2021/07/23 04:24:01;;;;;;;11.93;10.73;;;25.90;50.70;;;;;;4950254;28;20200;-47
2021/07/23 04:26:27;;;;;;;11.60;10.60;;;25.80;50.70;;;;;;4952953;29;20644;-46
2021/07/23 04:28:52;;;;;;;10.17;9.17;;;25.80;50.70;;;;;;4950976;28;20894;-51
2021/07/23 04:31:18;;;;;;;13.03;9.80;;;25.90;50.70;;;;;;4949889;28;20559;-46
2021/07/23 04:33:44;;;;;;;11.20;10.20;;;25.80;50.70;;;;;;4948926;29;20267;-50
2021/07/23 04:36:09;;;;;;;13.10;10.20;;;25.90;50.70;;;;;;4949573;29;20332;-46
2021/07/23 04:38:35;;;;;;;12.60;11.20;;;25.80;50.80;;;;;;4952441;29;20231;-47
2021/07/23 04:41:00;;;;;;;12.37;10.53;;;25.80;50.70;;;;;;4951928;29;20227;-50
2021/07/23 04:43:26;;;;;;;12.30;10.50;;;25.80;50.40;;;;;;4952746;29;20199;-51
2021/07/23 04:45:52;;;;;;;12.10;10.77;;;25.80;50.60;;;;;;4952654;29;20203;-52
2021/07/23 04:48:17;;;;;;;11.67;10.67;;;25.70;50.60;;;;;;4952668;29;20200;-51
2021/07/23 04:50:43;;;;;;;14.77;11.50;;;25.50;51.00;;;;;;4951553;28;20335;-47
2021/07/23 04:53:09;;;;;;;14.10;11.60;;;25.40;51.80;;;;;;4952505;29;20192;-51
2021/07/23 04:55:36;;;;;;;12.40;11.20;;;25.40;51.50;;;;;;4951751;28;20950;-48
2021/07/23 04:58:02;;;;;;;11.13;9.80;;;25.20;52.10;;;;;;4949903;29;20239;-47
2021/07/23 05:00:27;;;;;;;15.37;10.70;;;25.10;52.30;;;;;;4939620;29;20443;-49
2021/07/23 05:02:54;;;;;;;18.63;11.50;;;24.90;53.60;;;;;;4948205;29;20439;-51
2021/07/23 05:05:21;;;;;;;10.53;9.43;;;25.00;53.50;;;;;;4950383;28;20200;-45
2021/07/23 05:07:47;;;;;;;12.07;10.70;;;25.00;53.40;;;;;;4950958;28;20439;-51
2021/07/23 05:10:12;;;;;;;14.37;12.17;;;25.10;53.30;;;;;;4952293;28;20458;-50
2021/07/23 05:12:39;;;;;;;13.80;12.50;;;25.30;52.50;;;;;;4944184;29;20196;-47
2021/07/23 05:15:07;;;;;;;14.07;11.00;;;25.50;51.80;;;;;;4935238;28;20204;-50
2021/07/23 05:17:33;;;;;;;11.83;10.70;;;25.50;51.70;;;;;;4931099;29;20495;-51
2021/07/23 05:20:01;;;;;;;12.57;11.30;;;25.60;51.70;;;;;;4933621;29;20441;-51
2021/07/23 05:22:26;;;;;;;12.77;11.47;;;25.60;51.80;;;;;;4932190;29;22011;-50
2021/07/23 05:24:52;;;;;;;13.97;12.53;;;25.60;51.80;;;;;;4933193;29;20512;-51
2021/07/23 05:27:18;;;;;;;12.13;11.00;;;25.60;52.40;;;;;;4931298;29;20211;-52
2021/07/23 05:29:44;;;;;;;14.70;13.20;;;25.50;52.00;;;;;;4932426;29;20197;-45
2021/07/23 05:32:09;;;;;;;11.93;10.70;;;25.50;52.00;;;;;;4931730;29;20201;-50
2021/07/23 05:34:35;;;;;;;11.83;10.70;;;25.60;52.10;;;;;;4932398;29;20197;-51
2021/07/23 05:37:01;;;;;;;16.00;12.23;;;25.40;52.50;;;;;;4931910;29;20697;-51
2021/07/23 05:39:26;;;;;;;12.97;11.57;;;25.30;53.30;;;;;;4924586;29;20712;-51
2021/07/23 05:41:52;;;;;;;15.50;11.50;;;25.20;52.80;;;;;;4932495;29;20255;-55
2021/07/23 05:44:17;;;;;;;14.40;11.33;;;25.30;52.80;;;;;;4933984;29;20221;-50
2021/07/23 05:46:43;;;;;;;17.07;11.03;;;25.30;52.70;;;;;;4936148;29;20203;-49
2021/07/23 05:49:09;;;;;;;13.77;12.10;;;25.40;52.60;;;;;;4935308;29;20208;-53
2021/07/23 05:51:34;;;;;;;14.37;12.83;;;25.50;52.60;;;;;;4936170;29;20205;-52
2021/07/23 05:54:00;;;;;;;12.63;11.43;;;25.50;52.40;;;;;;4935830;29;20201;-50
2021/07/23 05:56:25;;;;;;;13.47;12.27;;;25.50;52.70;;;;;;4934032;29;20201;-49
2021/07/23 05:58:51;;;;;;;14.23;12.10;;;25.30;53.30;;;;;;4934502;29;20242;-49
2021/07/23 06:01:16;;;;;;;15.90;12.50;;;25.40;53.60;;;;;;4934825;29;20195;-53
2021/07/23 06:03:42;;;;;;;14.07;12.50;;;25.40;53.50;;;;;;4937489;29;20255;-48
2021/07/23 06:06:08;;;;;;;12.80;11.50;;;25.40;53.70;;;;;;4928239;29;20200;-46
2021/07/23 06:08:33;;;;;;;14.63;12.40;;;25.30;53.60;;;;;;4918270;29;20197;-48
2021/07/23 06:11:06;;;;;;;13.20;11.80;;;25.10;54.40;;;;;;4917726;29;20197;-53
2021/07/23 06:13:35;;;;;;;15.13;12.63;;;24.90;55.00;;;;;;4918332;29;20701;-52
2021/07/23 06:16:05;;;;;;;14.40;12.30;;;24.80;55.50;;;;;;4917826;29;20540;-52
2021/07/23 06:18:31;;;;;;;13.80;12.30;;;24.80;55.70;;;;;;4936868;28;21015;-49
2021/07/23 06:20:57;;;;;;;13.63;12.23;;;24.80;55.50;;;;;;4944913;28;20428;-51
2021/07/23 06:23:23;;;;;;;13.50;12.07;;;24.90;55.30;;;;;;4935808;29;20987;-53
2021/07/23 06:25:48;;;;;;;14.47;12.60;;;25.10;55.20;;;;;;4937113;29;20641;-53
2021/07/23 06:28:14;;;;;;;14.47;12.83;;;25.20;54.90;;;;;;4936750;29;20649;-52
2021/07/23 06:30:40;;;;;;;13.90;12.50;;;25.30;54.50;;;;;;4936734;29;20613;-50
2021/07/23 06:33:05;;;;;;;13.83;12.53;;;25.40;54.10;;;;;;4937216;29;20212;-47
2021/07/23 06:35:32;;;;;;;17.20;13.93;;;25.30;54.20;;;;;;4936646;29;20425;-47
2021/07/23 06:37:58;;;;;;;14.30;12.90;;;25.40;53.80;;;;;;4936788;29;20384;-49
2021/07/23 06:40:25;;;;;;;16.00;13.63;;;25.40;54.10;;;;;;4936454;29;20417;-49
2021/07/23 06:42:50;;;;;;;16.00;14.30;;;25.60;53.20;;;;;;4936966;29;20821;-47
2021/07/23 06:45:16;;;;;;;15.80;13.60;;;25.70;52.60;;;;;;4943782;29;20432;-50
2021/07/23 06:47:42;;;;;;;15.70;14.13;;;25.80;52.60;;;;;;4955256;29;20203;-52
2021/07/23 06:50:07;;;;;;;15.17;13.57;;;25.90;52.30;;;;;;4954432;29;20199;-53
2021/07/23 06:52:34;;;;;;;15.00;13.50;;;26.00;52.00;;;;;;4955509;28;20643;-53
2021/07/23 06:55:00;;;;;;;16.93;12.90;;;26.10;51.80;;;;;;4955414;28;20196;-51
2021/07/23 06:57:26;;;;;;;17.23;13.37;;;26.20;51.80;;;;;;4954745;28;20475;-53
2021/07/23 06:59:52;;;;;;;15.60;13.10;;;26.20;51.90;;;;;;4955883;29;20423;-53
2021/07/23 07:02:17;;;;;;;14.80;13.20;;;26.40;51.40;;;;;;4955264;28;20781;-53
2021/07/23 07:04:44;;;;;;;15.90;13.87;;;26.60;51.20;;;;;;4956224;28;20211;-51
2021/07/23 07:07:11;;;;;;;15.70;12.80;;;26.70;50.90;;;;;;4954553;29;20726;-52
2021/07/23 07:09:37;;;;;;;15.80;12.67;;;26.90;51.10;;;;;;4955667;28;21022;-50
2021/07/23 07:12:03;;;;;;;14.93;13.37;;;27.00;50.60;;;;;;4955399;28;20519;-53
2021/07/23 07:14:29;;;;;;;14.83;12.47;;;27.10;50.00;;;;;;4955806;29;20286;-51
2021/07/23 07:16:57;;;;;;;15.47;13.80;;;27.20;49.50;;;;;;4953093;28;20559;-51
2021/07/23 07:19:23;;;;;;;16.20;14.53;;;27.40;49.20;;;;;;4955815;28;20283;-52
2021/07/23 07:21:49;;;;;;;14.47;13.07;;;27.50;48.80;;;;;;4937121;29;20468;-53
2021/07/23 07:24:19;;;;;;;13.40;12.20;;;27.40;49.00;;;;;;4936582;29;20921;-52
2021/07/23 07:26:46;;;;;;;13.50;12.20;;;27.60;48.80;;;;;;4936076;29;20203;-54
2021/07/23 07:29:12;;;;;;;14.53;12.77;;;27.60;49.30;;;;;;4935925;29;20437;-53
2021/07/23 07:31:38;;;;;;;17.20;13.20;;;27.80;48.30;;;;;;4935597;29;20420;-53
2021/07/23 07:34:04;;;;;;;16.57;13.83;;;27.80;48.40;;;;;;4935992;29;20435;-52
2021/07/23 07:36:30;;;;;;;15.10;12.97;;;27.90;48.20;;;;;;4935643;29;20240;-54
2021/07/23 07:38:58;;;;;;;15.00;12.63;;;28.00;48.00;;;;;;4935622;29;20483;-52
2021/07/23 07:41:26;;;;;;;14.97;13.23;;;28.00;47.60;;;;;;4934041;29;21116;-53
2021/07/23 07:43:51;;;;;;;16.90;14.03;;;28.20;48.00;;;;;;4936108;29;20432;-52
2021/07/23 07:46:17;;;;;;;14.13;12.70;;;28.30;47.20;;;;;;4950167;29;20427;-51
2021/07/23 07:48:43;;;;;;;17.93;13.20;;;28.30;47.60;;;;;;4954370;28;20196;-50
2021/07/23 07:51:09;;;;;;;15.27;13.80;;;28.40;47.20;;;;;;4954494;28;20547;-48
2021/07/23 07:53:35;;;;;;;14.33;12.93;;;28.60;46.80;;;;;;4937599;29;20200;-48
2021/07/23 07:56:01;;;;;;;14.70;13.30;;;28.70;47.00;;;;;;4954187;28;20219;-48
2021/07/23 07:58:27;;;;;;;15.70;14.20;;;28.70;46.50;;;;;;4954181;28;20533;-48
2021/07/23 08:00:52;;;;;;;13.97;12.73;;;28.70;46.60;;;;;;4954130;29;20200;-51
2021/07/23 08:03:18;;;;;;;15.23;13.00;;;28.80;46.60;;;;;;4954697;29;20203;-54
2021/07/23 08:05:43;;;;;;;16.07;13.30;;;28.90;46.40;;;;;;4953622;28;20258;-52
2021/07/23 08:08:11;;;;;;;15.57;13.90;;;29.00;46.60;;;;;;4952408;29;20254;-52
2021/07/23 08:10:36;;;;;;;14.27;12.77;;;29.20;46.50;;;;;;4954114;29;20208;-52
2021/07/23 08:13:03;;;;;;;13.97;12.67;;;29.20;46.30;;;;;;4954659;28;20439;-52
2021/07/23 08:15:29;;;;;;;14.17;12.70;;;29.30;46.70;;;;;;4953878;29;20196;-53
2021/07/23 08:17:54;;;;;;;14.00;12.67;;;29.40;46.70;;;;;;4953698;29;20842;-53
2021/07/23 08:20:20;;;;;;;13.60;11.67;;;29.60;45.30;;;;;;4941101;29;20661;-50
2021/07/23 08:22:46;;;;;;;15.30;12.40;;;29.70;45.10;;;;;;4954465;29;20211;-54
2021/07/23 08:25:12;;;;;;;13.73;12.33;;;29.80;45.00;;;;;;4954486;29;20200;-53
2021/07/23 08:27:38;;;;;;;13.33;12.00;;;29.90;44.80;;;;;;4953301;29;20656;-52
2021/07/23 08:30:06;;;;;;;13.20;11.90;;;30.10;44.70;;;;;;4954286;29;20727;-52
2021/07/23 08:32:36;;;;;;;13.93;11.30;;;30.30;45.50;;;;;;4953695;29;20200;-52
2021/07/23 08:35:03;;;;;;;12.60;11.50;;;30.40;45.50;;;;;;4952595;29;20951;-49
2021/07/23 08:37:29;;;;;;;14.30;12.40;;;30.60;45.00;;;;;;4952740;29;20490;-49
2021/07/23 08:39:54;;;;;;;13.60;12.27;;;30.70;44.50;;;;;;4954104;28;20915;-48
2021/07/23 08:42:27;;;;;;;17.20;13.47;;;30.90;44.00;;;;;;4953560;29;20192;-52
2021/07/23 08:44:54;;;;;;;14.17;12.30;;;31.10;42.80;;;;;;4953879;28;20203;-49
2021/07/23 08:47:21;;;;;;;14.00;11.87;;;31.10;43.00;;;;;;4952830;29;20928;-49
2021/07/23 08:49:47;;;;;;;13.40;12.03;;;31.20;43.60;;;;;;4953914;28;20809;-51
2021/07/23 08:52:13;;;;;;;14.87;13.43;;;31.20;42.70;;;;;;4953466;29;20434;-48
2021/07/23 08:54:38;;;;;;;12.83;11.53;;;31.40;42.40;;;;;;4953970;29;20424;-48
2021/07/23 08:57:08;;;;;;;13.40;12.20;;;31.60;42.20;;;;;;4952546;29;20223;-49
2021/07/23 08:59:34;;;;;;;13.17;11.87;;;31.80;41.40;;;;;;4953663;28;20196;-47
2021/07/23 09:02:01;;;;;;;15.77;12.20;;;31.90;41.80;;;;;;4951558;29;20438;-48
2021/07/23 09:04:30;;;;;;;12.87;11.67;;;32.00;41.60;;;;;;4954108;29;20675;-50
2021/07/23 09:07:29;;;;;;;12.60;11.40;;;32.00;41.40;;;;;;4952469;28;20474;-48
2021/07/23 09:10:06;;;;;;;16.70;13.30;;;32.10;41.10;;;;;;4902292;29;20827;-48
2021/07/23 09:12:53;;;;;;;14.47;12.97;;;32.20;40.70;;;;;;4953300;28;20927;-48
2021/07/23 09:15:43;;;;;;;14.30;12.80;;;32.30;41.00;;;;;;4953158;29;20439;-48
2021/07/23 09:18:35;;;;;;;13.03;11.63;;;32.40;40.80;;;;;;4952679;28;20583;-48
2021/07/23 09:21:06;;;;;;;11.67;10.67;;;32.50;40.80;;;;;;4941236;28;20437;-48
2021/07/23 09:23:39;;;;;;;14.30;12.90;;;32.60;41.20;;;;;;4934366;29;20912;-48
2021/07/23 09:26:11;;;;;;;14.57;12.97;;;32.60;39.80;;;;;;4933881;29;20903;-48
2021/07/23 09:28:38;;;;;;;13.83;12.43;;;32.70;40.00;;;;;;4932275;29;20433;-48
2021/07/23 09:31:06;;;;;;;19.00;12.77;;;32.60;39.80;;;;;;4933859;29;20468;-48
2021/07/23 09:33:40;;;;;;;12.93;11.77;;;32.60;40.70;;;;;;4934363;29;20428;-49
2021/07/23 09:36:08;;;;;;;13.47;12.07;;;32.70;39.70;;;;;;4933592;29;20475;-51
2021/07/23 09:38:40;;;;;;;12.57;11.30;;;32.70;39.50;;;;;;4933861;29;20491;-50
2021/07/23 09:41:09;;;;;;;12.40;11.30;;;32.80;39.60;;;;;;4933439;29;20436;-47
2021/07/23 09:43:40;;;;;;;12.53;11.43;;;32.80;39.50;;;;;;4934229;29;20432;-48
2021/07/23 09:46:18;;;;;;;12.00;10.97;;;32.90;38.10;;;;;;4947073;28;20435;-49
2021/07/23 09:48:44;;;;;;;12.90;11.00;;;33.00;37.60;;;;;;4952996;29;20423;-49
2021/07/23 09:51:11;;;;;;;10.80;9.70;;;33.10;37.60;;;;;;4952536;28;20423;-48
2021/07/23 09:53:37;;;;;;;10.33;9.40;;;33.30;37.00;;;;;;4952255;29;20439;-53
2021/07/23 09:56:07;;;;;;;11.03;9.40;;;33.40;36.00;;;;;;4952326;28;20955;-48
2021/07/23 09:58:37;;;;;;;10.93;9.90;;;33.60;35.50;;;;;;4952781;29;20491;-50
2021/07/23 10:01:08;;;;;;;11.00;9.93;;;33.70;35.10;;;;;;4952746;28;20438;-49
2021/07/23 10:03:38;;;;;;;10.10;9.10;;;33.90;34.50;;;;;;4953389;29;20435;-49
2021/07/23 10:06:07;;;;;;;11.00;10.10;;;34.10;34.90;;;;;;4952752;29;20478;-49
2021/07/23 10:08:38;;;;;;;11.07;10.17;;;34.40;34.90;;;;;;4952667;28;20427;-49
2021/07/23 10:11:09;;;;;;;9.93;9.03;;;34.50;33.90;;;;;;4952416;29;20436;-53
2021/07/23 10:13:38;;;;;;;10.30;9.40;;;34.60;33.40;;;;;;4953085;29;20465;-49
2021/07/23 10:16:08;;;;;;;10.50;9.43;;;34.70;32.70;;;;;;4952504;29;20438;-48
2021/07/23 10:18:35;;;;;;;10.17;9.27;;;34.70;33.80;;;;;;4952756;29;20495;-48
2021/07/23 10:21:02;;;;;;;13.33;10.33;;;34.90;33.70;;;;;;4939203;28;20444;-49
2021/07/23 10:23:29;;;;;;;11.77;10.67;;;35.20;33.90;;;;;;4933929;29;20495;-52
2021/07/23 10:25:56;;;;;;;11.60;10.50;;;35.30;35.00;;;;;;4933364;29;20772;-49
2021/07/23 10:28:40;;;;;;;10.50;9.60;;;35.40;34.20;;;;;;4933336;29;20537;-49
2021/07/23 10:31:22;;;;;;;11.90;10.90;;;35.60;34.50;;;;;;4936486;29;20444;-49
2021/07/23 10:34:06;;;;;;;10.83;9.90;;;35.60;32.20;;;;;;4937305;29;20868;-48
2021/07/23 10:36:32;;;;;;;11.10;10.10;;;35.80;32.20;;;;;;4936420;29;20954;-51
2021/07/23 10:39:07;;;;;;;12.67;9.63;;;35.90;33.00;;;;;;4937188;29;20543;-53
2021/07/23 10:41:33;;;;;;;10.93;9.97;;;35.50;32.00;;;;;;4936480;29;20543;-48
2021/07/23 10:43:59;;;;;;;13.93;10.90;;;35.40;32.40;;;;;;4936990;29;20460;-49
2021/07/23 10:46:42;;;;;;;10.20;9.30;;;35.50;31.50;;;;;;4951741;29;20463;-50
2021/07/23 10:49:27;;;;;;;11.37;10.47;;;35.50;31.40;;;;;;4956138;29;20200;-51
2021/07/23 10:51:54;;;;;;;11.60;10.40;;;35.80;31.10;;;;;;4955215;29;20507;-50
2021/07/23 10:54:24;;;;;;;10.80;9.30;;;36.00;31.30;;;;;;4955972;29;20796;-50
2021/07/23 10:57:00;;;;;;;10.17;9.03;;;36.20;31.00;;;;;;4955019;29;20436;-49
2021/07/23 11:00:00;;;;;;;11.27;10.17;;;36.40;30.70;;;;;;4956030;28;20435;-53
2021/07/23 11:02:31;;;;;;;10.70;9.80;;;36.50;30.30;;;;;;4937655;29;20454;-49
2021/07/23 11:05:13;;;;;;;11.77;9.97;;;36.70;30.20;;;;;;4955904;29;20797;-49
2021/07/23 11:07:39;;;;;;;11.10;10.20;;;36.70;30.10;;;;;;4954851;29;20927;-48
2021/07/23 11:10:09;;;;;;;9.93;8.97;;;36.70;30.90;;;;;;4955595;29;21018;-49
2021/07/23 11:12:42;;;;;;;9.90;9.13;;;36.80;30.70;;;;;;4954781;29;20431;-49
2021/07/23 11:15:10;;;;;;;10.60;9.70;;;37.00;30.00;;;;;;4954000;29;20435;-50
2021/07/23 11:17:54;;;;;;;12.30;10.90;;;37.20;29.90;;;;;;4954355;28;21006;-49
2021/07/23 11:20:28;;;;;;;11.00;9.93;;;37.30;30.10;;;;;;4948717;28;20435;-51
2021/07/23 11:22:54;;;;;;;9.97;9.17;;;37.30;30.10;;;;;;4936267;29;20471;-52
2021/07/23 11:25:21;;;;;;;10.33;9.53;;;37.40;31.30;;;;;;4935587;29;20818;-53
2021/07/23 11:27:51;;;;;;;9.90;9.10;;;37.30;30.50;;;;;;4935738;29;20432;-51
2021/07/23 11:30:22;;;;;;;11.33;10.43;;;37.30;30.40;;;;;;4936160;29;20432;-51
2021/07/23 11:32:56;;;;;;;10.73;9.63;;;37.50;29.70;;;;;;4936324;29;20444;-51
2021/07/23 11:35:26;;;;;;;11.27;10.13;;;37.60;28.90;;;;;;4935597;29;20940;-52
2021/07/23 11:37:53;;;;;;;12.20;11.00;;;37.60;28.90;;;;;;4935662;29;20488;-49
2021/07/23 11:40:22;;;;;;;11.10;10.00;;;37.60;28.90;;;;;;4934208;29;20441;-51
2021/07/23 11:42:56;;;;;;;12.07;10.00;;;37.70;29.40;;;;;;4935802;29;20440;-49
2021/07/23 11:45:44;;;;;;;10.40;9.37;;;37.50;30.30;;;;;;4942646;29;20438;-53
2021/07/23 11:48:15;;;;;;;10.60;9.80;;;37.50;31.40;;;;;;4946848;29;20442;-49
2021/07/23 11:51:00;;;;;;;9.97;8.87;;;37.60;31.30;;;;;;4954729;29;20888;-50
2021/07/23 11:53:25;;;;;;;12.10;9.03;;;37.70;30.70;;;;;;4954973;28;20868;-49
2021/07/23 11:55:52;;;;;;;10.67;9.57;;;37.90;30.60;;;;;;4954095;29;20506;-49
2021/07/23 11:58:23;;;;;;;9.80;8.97;;;38.10;30.10;;;;;;4954363;28;20239;-50
2021/07/23 12:00:49;;;;;;;12.10;9.70;;;38.30;29.20;;;;;;4954189;28;20459;-54
2021/07/23 12:03:17;;;;;;;10.40;9.50;;;38.30;28.80;;;;;;4954857;29;20514;-51
2021/07/23 12:05:43;;;;;;;10.43;9.53;;;38.40;28.50;;;;;;4954262;28;20218;-52
2021/07/23 12:08:09;;;;;;;11.23;10.33;;;38.30;28.70;;;;;;4953115;29;20786;-52
2021/07/23 12:10:35;;;;;;;10.60;9.70;;;38.30;29.40;;;;;;4953444;29;20612;-51
2021/07/23 12:13:09;;;;;;;10.20;9.30;;;38.20;29.50;;;;;;4954135;28;20195;-49
2021/07/23 12:15:55;;;;;;;10.83;9.83;;;38.30;29.10;;;;;;4954317;28;20416;-51
2021/07/23 12:18:22;;;;;;;10.70;9.90;;;38.40;28.20;;;;;;4953956;29;20493;-53
2021/07/23 12:20:48;;;;;;;10.20;9.30;;;38.40;29.90;;;;;;4944396;29;20798;-53
2021/07/23 12:23:25;;;;;;;11.00;10.00;;;38.40;28.90;;;;;;4935042;29;20420;-54
2021/07/23 12:25:50;;;;;;;11.77;10.20;;;38.40;27.60;;;;;;4934620;29;20920;-49
2021/07/23 12:28:17;;;;;;;10.40;9.50;;;38.40;27.30;;;;;;4934949;29;20436;-50
2021/07/23 12:30:45;;;;;;;10.77;9.77;;;38.50;27.40;;;;;;4934621;29;20211;-49
2021/07/23 12:33:33;;;;;;;10.77;9.87;;;38.60;27.50;;;;;;4933666;29;20484;-50